sensor_id;sensor_type;location;lat;lon;timestamp;pressure;altitude;pressure_sealevel;temperature
69415;BMP280;56608;43.530;-5.652;2023-05-07T00:00:08;101764.72;;;18.71
69415;BMP280;56608;43.530;-5.652;2023-05-07T00:01:08;101759.56;;;18.73
69415;BMP280;56608;43.530;-5.652;2023-05-07T00:02:09;101755.63;;;18.74
69415;BMP280;56608;43.530;-5.652;2023-05-07T00:03:09;101763.25;;;18.61
69415;BMP280;56608;43.530;-5.652;2023-05-07T00:04:11;101758.00;;;18.57
69415;BMP280;56608;43.530;-5.652;2023-05-07T00:05:11;101757.59;;;18.49
69415;BMP280;56608;43.530;-5.652;2023-05-07T00:06:12;101752.44;;;18.52
69415;BMP280;56608;43.530;-5.652;2023-05-07T00:07:12;101759.41;;;18.53
69415;BMP280;56608;43.530;-5.652;2023-05-07T00:08:12;101758.66;;;18.52
69415;BMP280;56608;43.530;-5.652;2023-05-07T00:09:13;101748.03;;;18.54
69415;BMP280;56608;43.530;-5.652;2023-05-07T00:10:13;101756.03;;;18.58
69415;BMP280;56608;43.530;-5.652;2023-05-07T00:11:13;101753.03;;;18.56
69415;BMP280;56608;43.530;-5.652;2023-05-07T00:12:14;101749.09;;;18.57
69415;BMP280;56608;43.530;-5.652;2023-05-07T00:13:14;101757.53;;;18.59
69415;BMP280;56608;43.530;-5.652;2023-05-07T00:14:14;101757.81;;;18.61
69415;BMP280;56608;43.530;-5.652;2023-05-07T00:15:15;101752.19;;;18.64
69415;BMP280;56608;43.530;-5.652;2023-05-07T00:16:15;101758.00;;;18.57
69415;BMP280;56608;43.530;-5.652;2023-05-07T00:17:15;101755.19;;;18.52
69415;BMP280;56608;43.530;-5.652;2023-05-07T00:18:16;101760.62;;;18.52
69415;BMP280;56608;43.530;-5.652;2023-05-07T00:19:16;101751.31;;;18.58
69415;BMP280;56608;43.530;-5.652;2023-05-07T00:20:16;101756.03;;;18.58
69415;BMP280;56608;43.530;-5.652;2023-05-07T00:21:17;101751.16;;;18.62
69415;BMP280;56608;43.530;-5.652;2023-05-07T00:22:17;101752.94;;;18.65
69415;BMP280;56608;43.530;-5.652;2023-05-07T00:23:17;101758.28;;;18.59
69415;BMP280;56608;43.530;-5.652;2023-05-07T00:24:17;101761.41;;;18.67
69415;BMP280;56608;43.530;-5.652;2023-05-07T00:25:18;101758.34;;;18.74
69415;BMP280;56608;43.530;-5.652;2023-05-07T00:26:19;101760.91;;;18.68
69415;BMP280;56608;43.530;-5.652;2023-05-07T00:27:20;101760.66;;;18.66
69415;BMP280;56608;43.530;-5.652;2023-05-07T00:28:20;101760.16;;;18.68
69415;BMP280;56608;43.530;-5.652;2023-05-07T00:29:21;101756.78;;;18.58
69415;BMP280;56608;43.530;-5.652;2023-05-07T00:30:21;101762.69;;;18.57
69415;BMP280;56608;43.530;-5.652;2023-05-07T00:31:21;101759.34;;;18.62
69415;BMP280;56608;43.530;-5.652;2023-05-07T00:32:22;101758.19;;;18.68
69415;BMP280;56608;43.530;-5.652;2023-05-07T00:33:22;101753.00;;;18.79
69415;BMP280;56608;43.530;-5.652;2023-05-07T00:34:22;101763.31;;;18.75
69415;BMP280;56608;43.530;-5.652;2023-05-07T00:35:23;101753.25;;;18.81
69415;BMP280;56608;43.530;-5.652;2023-05-07T00:36:23;101754.59;;;18.86
69415;BMP280;56608;43.530;-5.652;2023-05-07T00:37:23;101759.31;;;18.85
69415;BMP280;56608;43.530;-5.652;2023-05-07T00:38:24;101760.72;;;18.81
69415;BMP280;56608;43.530;-5.652;2023-05-07T00:39:24;101761.34;;;18.76
69415;BMP280;56608;43.530;-5.652;2023-05-07T00:40:25;101757.88;;;18.75
69415;BMP280;56608;43.530;-5.652;2023-05-07T00:41:25;101759.84;;;18.75
69415;BMP280;56608;43.530;-5.652;2023-05-07T00:42:26;101757.69;;;18.79
69415;BMP280;56608;43.530;-5.652;2023-05-07T00:43:26;101752.25;;;18.79
69415;BMP280;56608;43.530;-5.652;2023-05-07T00:44:28;101751.22;;;18.76
69415;BMP280;56608;43.530;-5.652;2023-05-07T00:45:29;101747.16;;;18.72
69415;BMP280;56608;43.530;-5.652;2023-05-07T00:46:30;101746.41;;;18.71
69415;BMP280;56608;43.530;-5.652;2023-05-07T00:47:31;101746.22;;;18.75
69415;BMP280;56608;43.530;-5.652;2023-05-07T00:48:31;101746.78;;;18.79
69415;BMP280;56608;43.530;-5.652;2023-05-07T00:49:52;101748.75;;;18.78
69415;BMP280;56608;43.530;-5.652;2023-05-07T00:50:52;101751.69;;;18.75
69415;BMP280;56608;43.530;-5.652;2023-05-07T00:51:53;101750.16;;;18.74
69415;BMP280;56608;43.530;-5.652;2023-05-07T00:52:53;101750.12;;;18.59
69415;BMP280;56608;43.530;-5.652;2023-05-07T00:53:54;101753.47;;;18.54
69415;BMP280;56608;43.530;-5.652;2023-05-07T00:54:54;101749.34;;;18.59
69415;BMP280;56608;43.530;-5.652;2023-05-07T00:55:55;101751.72;;;18.66
69415;BMP280;56608;43.530;-5.652;2023-05-07T00:56:55;101751.13;;;18.71
69415;BMP280;56608;43.530;-5.652;2023-05-07T00:57:56;101744.16;;;18.70
69415;BMP280;56608;43.530;-5.652;2023-05-07T00:58:56;101752.31;;;18.70
69415;BMP280;56608;43.530;-5.652;2023-05-07T00:59:56;101747.16;;;18.72
69415;BMP280;56608;43.530;-5.652;2023-05-07T01:00:57;101751.44;;;18.64
69415;BMP280;56608;43.530;-5.652;2023-05-07T01:01:58;101751.44;;;18.64
69415;BMP280;56608;43.530;-5.652;2023-05-07T01:02:58;101741.72;;;18.72
69415;BMP280;56608;43.530;-5.652;2023-05-07T01:03:59;101747.31;;;18.68
69415;BMP280;56608;43.530;-5.652;2023-05-07T01:04:59;101752.50;;;18.66
69415;BMP280;56608;43.530;-5.652;2023-05-07T01:06:00;101750.69;;;18.63
69415;BMP280;56608;43.530;-5.652;2023-05-07T01:07:01;101746.28;;;18.66
69415;BMP280;56608;43.530;-5.652;2023-05-07T01:08:02;101753.50;;;18.69
69415;BMP280;56608;43.530;-5.652;2023-05-07T01:09:03;101755.66;;;18.65
69415;BMP280;56608;43.530;-5.652;2023-05-07T01:10:04;101753.41;;;18.63
69415;BMP280;56608;43.530;-5.652;2023-05-07T01:11:06;101763.84;;;18.65
69415;BMP280;56608;43.530;-5.652;2023-05-07T01:12:07;101755.97;;;18.67
69415;BMP280;56608;43.530;-5.652;2023-05-07T01:13:11;101753.84;;;18.71
69415;BMP280;56608;43.530;-5.652;2023-05-07T01:14:12;101758.91;;;18.78
69415;BMP280;56608;43.530;-5.652;2023-05-07T01:15:12;101755.25;;;18.81
69415;BMP280;56608;43.530;-5.652;2023-05-07T01:16:13;101757.78;;;18.84
69415;BMP280;56608;43.530;-5.652;2023-05-07T01:17:13;101752.63;;;18.86
69415;BMP280;56608;43.530;-5.652;2023-05-07T01:18:14;101756.38;;;18.89
69415;BMP280;56608;43.530;-5.652;2023-05-07T01:19:15;101761.84;;;18.89
69415;BMP280;56608;43.530;-5.652;2023-05-07T01:20:17;101765.78;;;18.88
69415;BMP280;56608;43.530;-5.652;2023-05-07T01:21:18;101767.28;;;18.89
69415;BMP280;56608;43.530;-5.652;2023-05-07T01:22:26;101757.91;;;18.90
69415;BMP280;56608;43.530;-5.652;2023-05-07T01:23:28;101759.56;;;18.87
69415;BMP280;56608;43.530;-5.652;2023-05-07T01:24:30;101758.25;;;18.83
69415;BMP280;56608;43.530;-5.652;2023-05-07T01:25:31;101759.19;;;18.80
69415;BMP280;56608;43.530;-5.652;2023-05-07T01:26:32;101756.84;;;18.87
69415;BMP280;56608;43.530;-5.652;2023-05-07T01:27:32;101755.63;;;18.88
69415;BMP280;56608;43.530;-5.652;2023-05-07T01:28:33;101758.63;;;18.90
69415;BMP280;56608;43.530;-5.652;2023-05-07T01:29:34;101758.06;;;18.86
69415;BMP280;56608;43.530;-5.652;2023-05-07T01:30:34;101759.00;;;18.83
69415;BMP280;56608;43.530;-5.652;2023-05-07T01:31:35;101764.34;;;18.78
69415;BMP280;56608;43.530;-5.652;2023-05-07T01:32:53;101764.16;;;18.81
69415;BMP280;56608;43.530;-5.652;2023-05-07T01:33:56;101759.94;;;18.80
69415;BMP280;56608;43.530;-5.652;2023-05-07T01:34:59;101767.62;;;18.82
69415;BMP280;56608;43.530;-5.652;2023-05-07T01:36:01;101766.72;;;18.85
69415;BMP280;56608;43.530;-5.652;2023-05-07T01:37:04;101760.31;;;18.88
69415;BMP280;56608;43.530;-5.652;2023-05-07T01:38:04;101762.75;;;18.86
69415;BMP280;56608;43.530;-5.652;2023-05-07T01:39:06;101759.56;;;18.87
69415;BMP280;56608;43.530;-5.652;2023-05-07T01:40:06;101761.63;;;18.92
69415;BMP280;56608;43.530;-5.652;2023-05-07T01:41:07;101757.22;;;18.95
69415;BMP280;56608;43.530;-5.652;2023-05-07T01:42:07;101752.44;;;18.90
69415;BMP280;56608;43.530;-5.652;2023-05-07T01:43:08;101748.22;;;18.89
69415;BMP280;56608;43.530;-5.652;2023-05-07T01:44:10;101752.44;;;18.90
69415;BMP280;56608;43.530;-5.652;2023-05-07T01:45:12;101756.19;;;18.92
69415;BMP280;56608;43.530;-5.652;2023-05-07T01:46:12;101754.50;;;18.95
69415;BMP280;56608;43.530;-5.652;2023-05-07T01:47:13;101749.81;;;18.96
69415;BMP280;56608;43.530;-5.652;2023-05-07T01:48:14;101745.13;;;18.96
69415;BMP280;56608;43.530;-5.652;2023-05-07T01:49:14;101746.06;;;18.93
69415;BMP280;56608;43.530;-5.652;2023-05-07T01:50:15;101737.44;;;18.95
69415;BMP280;56608;43.530;-5.652;2023-05-07T01:51:16;101740.88;;;18.95
69415;BMP280;56608;43.530;-5.652;2023-05-07T01:52:17;101740.44;;;18.97
69415;BMP280;56608;43.530;-5.652;2023-05-07T01:53:17;101740.44;;;18.97
69415;BMP280;56608;43.530;-5.652;2023-05-07T01:54:17;101737.88;;;18.93
69415;BMP280;56608;43.530;-5.652;2023-05-07T01:55:18;101732.72;;;18.95
69415;BMP280;56608;43.530;-5.652;2023-05-07T01:56:18;101746.72;;;18.88
69415;BMP280;56608;43.530;-5.652;2023-05-07T01:57:19;101741.81;;;18.77
69415;BMP280;56608;43.530;-5.652;2023-05-07T01:58:19;101733.19;;;18.79
69415;BMP280;56608;43.530;-5.652;2023-05-07T01:59:19;101743.50;;;18.75
69415;BMP280;56608;43.530;-5.652;2023-05-07T02:00:20;101741.50;;;18.61
69415;BMP280;56608;43.530;-5.652;2023-05-07T02:01:20;101744.97;;;18.61
69415;BMP280;56608;43.530;-5.652;2023-05-07T02:02:21;101740.94;;;18.57
69415;BMP280;56608;43.530;-5.652;2023-05-07T02:03:21;101742.25;;;18.61
69415;BMP280;56608;43.530;-5.652;2023-05-07T02:04:21;101741.13;;;18.68
69415;BMP280;56608;43.530;-5.652;2023-05-07T02:05:22;101735.09;;;18.64
69415;BMP280;56608;43.530;-5.652;2023-05-07T02:06:22;101735.47;;;18.57
69415;BMP280;56608;43.530;-5.652;2023-05-07T02:07:23;101737.34;;;18.51
69415;BMP280;56608;43.530;-5.652;2023-05-07T02:08:23;101733.59;;;18.48
69415;BMP280;56608;43.530;-5.652;2023-05-07T02:09:23;101738.09;;;18.51
69415;BMP280;56608;43.530;-5.652;2023-05-07T02:10:24;101739.41;;;18.56
69415;BMP280;56608;43.530;-5.652;2023-05-07T02:11:24;101736.59;;;18.50
69415;BMP280;56608;43.530;-5.652;2023-05-07T02:12:25;101739.59;;;18.52
69415;BMP280;56608;43.530;-5.652;2023-05-07T02:13:28;101744.09;;;18.55
69415;BMP280;56608;43.530;-5.652;2023-05-07T02:14:28;101738.09;;;18.51
69415;BMP280;56608;43.530;-5.652;2023-05-07T02:15:28;101743.72;;;18.47
69415;BMP280;56608;43.530;-5.652;2023-05-07T02:16:29;101741.38;;;18.31
69415;BMP280;56608;43.530;-5.652;2023-05-07T02:17:29;101741.56;;;18.28
69415;BMP280;56608;43.530;-5.652;2023-05-07T02:18:31;101736.50;;;18.35
69415;BMP280;56608;43.530;-5.652;2023-05-07T02:19:32;101733.34;;;18.37
69415;BMP280;56608;43.530;-5.652;2023-05-07T02:20:32;101735.25;;;18.45
69415;BMP280;56608;43.530;-5.652;2023-05-07T02:21:32;101737.34;;;18.51
69415;BMP280;56608;43.530;-5.652;2023-05-07T02:22:33;101735.66;;;18.53
69415;BMP280;56608;43.530;-5.652;2023-05-07T02:23:33;101728.81;;;18.58
69415;BMP280;56608;43.530;-5.652;2023-05-07T02:24:33;101724.59;;;18.57
69415;BMP280;56608;43.530;-5.652;2023-05-07T02:25:34;101727.41;;;18.47
69415;BMP280;56608;43.530;-5.652;2023-05-07T02:26:34;101718.03;;;18.48
69415;BMP280;56608;43.530;-5.652;2023-05-07T02:27:35;101722.88;;;18.44
69415;BMP280;56608;43.530;-5.652;2023-05-07T02:28:35;101728.00;;;18.42
69415;BMP280;56608;43.530;-5.652;2023-05-07T02:29:35;101727.66;;;18.26
69415;BMP280;56608;43.530;-5.652;2023-05-07T02:30:36;101717.72;;;18.23
69415;BMP280;56608;43.530;-5.652;2023-05-07T02:31:37;101723.62;;;18.21
69415;BMP280;56608;43.530;-5.652;2023-05-07T02:32:37;101722.88;;;18.21
69415;BMP280;56608;43.530;-5.652;2023-05-07T02:33:37;101724.84;;;18.20
69415;BMP280;56608;43.530;-5.652;2023-05-07T02:34:38;101718.97;;;18.13
69415;BMP280;56608;43.530;-5.652;2023-05-07T02:35:38;101719.41;;;18.20
69415;BMP280;56608;43.530;-5.652;2023-05-07T02:36:38;101720.31;;;18.17
69415;BMP280;56608;43.530;-5.652;2023-05-07T02:37:39;101726.34;;;18.21
69415;BMP280;56608;43.530;-5.652;2023-05-07T02:38:39;101718.78;;;18.16
69415;BMP280;56608;43.530;-5.652;2023-05-07T02:39:39;101717.00;;;18.13
69415;BMP280;56608;43.530;-5.652;2023-05-07T02:40:40;101723.09;;;18.08
69415;BMP280;56608;43.530;-5.652;2023-05-07T02:41:40;101719.16;;;18.09
69415;BMP280;56608;43.530;-5.652;2023-05-07T02:42:40;101714.47;;;18.10
69415;BMP280;56608;43.530;-5.652;2023-05-07T02:43:41;101722.00;;;18.15
69415;BMP280;56608;43.530;-5.652;2023-05-07T02:44:41;101714.87;;;18.17
69415;BMP280;56608;43.530;-5.652;2023-05-07T02:45:41;101721.09;;;18.18
69415;BMP280;56608;43.530;-5.652;2023-05-07T02:46:43;101721.37;;;18.20
69415;BMP280;56608;43.530;-5.652;2023-05-07T02:47:43;101721.09;;;18.18
69415;BMP280;56608;43.530;-5.652;2023-05-07T02:48:43;101725.16;;;18.13
69415;BMP280;56608;43.530;-5.652;2023-05-07T02:49:44;101712.84;;;18.03
69415;BMP280;56608;43.530;-5.652;2023-05-07T02:50:44;101719.78;;;18.04
69415;BMP280;56608;43.530;-5.652;2023-05-07T02:51:45;101719.91;;;18.10
69415;BMP280;56608;43.530;-5.652;2023-05-07T02:52:45;101716.56;;;18.15
69415;BMP280;56608;43.530;-5.652;2023-05-07T02:53:45;101716.81;;;18.17
69415;BMP280;56608;43.530;-5.652;2023-05-07T02:54:46;101722.75;;;18.15
69415;BMP280;56608;43.530;-5.652;2023-05-07T02:55:46;101720.66;;;18.10
69415;BMP280;56608;43.530;-5.652;2023-05-07T02:56:46;101723.19;;;18.14
69415;BMP280;56608;43.530;-5.652;2023-05-07T02:57:47;101732.56;;;18.13
69415;BMP280;56608;43.530;-5.652;2023-05-07T02:58:47;101723.03;;;18.17
69415;BMP280;56608;43.530;-5.652;2023-05-07T02:59:47;101730.31;;;18.20
69415;BMP280;56608;43.530;-5.652;2023-05-07T03:00:47;101730.22;;;18.05
69415;BMP280;56608;43.530;-5.652;2023-05-07T03:01:48;101721.31;;;18.05
69415;BMP280;56608;43.530;-5.652;2023-05-07T03:02:48;101725.69;;;18.02
69415;BMP280;56608;43.530;-5.652;2023-05-07T03:03:48;101727.66;;;18.02
69415;BMP280;56608;43.530;-5.652;2023-05-07T03:04:49;101731.97;;;17.85
69415;BMP280;56608;43.530;-5.652;2023-05-07T03:05:49;101730.19;;;17.82
69415;BMP280;56608;43.530;-5.652;2023-05-07T03:06:50;101729.38;;;17.90
69415;BMP280;56608;43.530;-5.652;2023-05-07T03:07:50;101732.25;;;17.87
69415;BMP280;56608;43.530;-5.652;2023-05-07T03:08:50;101735.75;;;17.87
69415;BMP280;56608;43.530;-5.652;2023-05-07T03:09:51;101736.47;;;17.88
69415;BMP280;56608;43.530;-5.652;2023-05-07T03:10:51;101740.69;;;17.89
69415;BMP280;56608;43.530;-5.652;2023-05-07T03:11:51;101739.47;;;17.90
69415;BMP280;56608;43.530;-5.652;2023-05-07T03:12:52;101742.22;;;17.90
69415;BMP280;56608;43.530;-5.652;2023-05-07T03:13:52;101738.03;;;17.80
69415;BMP280;56608;43.530;-5.652;2023-05-07T03:14:52;101738.47;;;17.78
69415;BMP280;56608;43.530;-5.652;2023-05-07T03:15:52;101737.16;;;17.74
69415;BMP280;56608;43.530;-5.652;2023-05-07T03:16:53;101733.41;;;17.71
69415;BMP280;56608;43.530;-5.652;2023-05-07T03:17:53;101736.56;;;17.70
69415;BMP280;56608;43.530;-5.652;2023-05-07T03:18:53;101738.84;;;17.71
69415;BMP280;56608;43.530;-5.652;2023-05-07T03:19:54;101733.09;;;17.69
69415;BMP280;56608;43.530;-5.652;2023-05-07T03:20:54;101735.94;;;17.65
69415;BMP280;56608;43.530;-5.652;2023-05-07T03:21:55;101731.78;;;17.55
69415;BMP280;56608;43.530;-5.652;2023-05-07T03:22:55;101736.13;;;17.62
69415;BMP280;56608;43.530;-5.652;2023-05-07T03:23:55;101739.28;;;17.60
69415;BMP280;56608;43.530;-5.652;2023-05-07T03:24:56;101735.37;;;17.61
69415;BMP280;56608;43.530;-5.652;2023-05-07T03:25:56;101734.94;;;17.54
69415;BMP280;56608;43.530;-5.652;2023-05-07T03:26:57;101733.28;;;17.56
69415;BMP280;56608;43.530;-5.652;2023-05-07T03:27:57;101728.03;;;17.53
69415;BMP280;56608;43.530;-5.652;2023-05-07T03:28:58;101732.06;;;17.57
69415;BMP280;56608;43.530;-5.652;2023-05-07T03:29:58;101735.37;;;17.61
69415;BMP280;56608;43.530;-5.652;2023-05-07T03:30:58;101739.59;;;17.62
69415;BMP280;56608;43.530;-5.652;2023-05-07T03:31:58;101736.75;;;17.66
69415;BMP280;56608;43.530;-5.652;2023-05-07T03:32:59;101727.66;;;17.69
69415;BMP280;56608;43.530;-5.652;2023-05-07T03:33:59;101737.03;;;17.59
69415;BMP280;56608;43.530;-5.652;2023-05-07T03:35:00;101738.53;;;17.60
69415;BMP280;56608;43.530;-5.652;2023-05-07T03:36:00;101735.53;;;17.58
69415;BMP280;56608;43.530;-5.652;2023-05-07T03:37:01;101738.84;;;17.62
69415;BMP280;56608;43.530;-5.652;2023-05-07T03:38:01;101742.31;;;17.62
69415;BMP280;56608;43.530;-5.652;2023-05-07T03:39:01;101751.09;;;17.57
69415;BMP280;56608;43.530;-5.652;2023-05-07T03:40:02;101746.25;;;17.61
69415;BMP280;56608;43.530;-5.652;2023-05-07T03:41:03;101750.16;;;17.60
69415;BMP280;56608;43.530;-5.652;2023-05-07T03:42:03;101746.25;;;17.61
69415;BMP280;56608;43.530;-5.652;2023-05-07T03:43:03;101746.81;;;17.65
69415;BMP280;56608;43.530;-5.652;2023-05-07T03:44:04;101750.91;;;17.61
69415;BMP280;56608;43.530;-5.652;2023-05-07T03:45:04;101748.53;;;17.54
69415;BMP280;56608;43.530;-5.652;2023-05-07T03:46:05;101747.81;;;17.44
69415;BMP280;56608;43.530;-5.652;2023-05-07T03:47:05;101751.87;;;17.40
69415;BMP280;56608;43.530;-5.652;2023-05-07T03:48:05;101747.53;;;17.33
69415;BMP280;56608;43.530;-5.652;2023-05-07T03:49:06;101741.47;;;17.38
69415;BMP280;56608;43.530;-5.652;2023-05-07T03:50:06;101747.03;;;17.44
69415;BMP280;56608;43.530;-5.652;2023-05-07T03:51:06;101743.44;;;17.38
69415;BMP280;56608;43.530;-5.652;2023-05-07T03:52:07;101745.66;;;17.39
69415;BMP280;56608;43.530;-5.652;2023-05-07T03:53:07;101744.19;;;17.38
69415;BMP280;56608;43.530;-5.652;2023-05-07T03:54:08;101743.28;;;17.41
69415;BMP280;56608;43.530;-5.652;2023-05-07T03:55:08;101746.44;;;17.40
69415;BMP280;56608;43.530;-5.652;2023-05-07T03:56:08;101750.34;;;17.39
69415;BMP280;56608;43.530;-5.652;2023-05-07T03:57:09;101755.37;;;17.31
69415;BMP280;56608;43.530;-5.652;2023-05-07T03:58:09;101753.69;;;17.34
69415;BMP280;56608;43.530;-5.652;2023-05-07T03:59:09;101758.97;;;17.37
69415;BMP280;56608;43.530;-5.652;2023-05-07T04:00:10;101762.59;;;17.34
69415;BMP280;56608;43.530;-5.652;2023-05-07T04:01:11;101761.84;;;17.34
69415;BMP280;56608;43.530;-5.652;2023-05-07T04:02:12;101767.28;;;17.43
69415;BMP280;56608;43.530;-5.652;2023-05-07T04:03:12;101761.38;;;17.44
69415;BMP280;56608;43.530;-5.652;2023-05-07T04:04:12;101761.06;;;17.51
69415;BMP280;56608;43.530;-5.652;2023-05-07T04:05:13;101764.69;;;17.57
69415;BMP280;56608;43.530;-5.652;2023-05-07T04:06:15;101761.97;;;17.57
69415;BMP280;56608;43.530;-5.652;2023-05-07T04:07:16;101756.06;;;17.59
69415;BMP280;56608;43.530;-5.652;2023-05-07T04:08:17;101757.12;;;17.61
69415;BMP280;56608;43.530;-5.652;2023-05-07T04:09:17;101753.19;;;17.62
69415;BMP280;56608;43.530;-5.652;2023-05-07T04:10:17;101766.28;;;17.64
69415;BMP280;56608;43.530;-5.652;2023-05-07T04:11:18;101766.28;;;17.64
69415;BMP280;56608;43.530;-5.652;2023-05-07T04:12:18;101768.25;;;17.63
69415;BMP280;56608;43.530;-5.652;2023-05-07T04:13:18;101766.28;;;17.64
69415;BMP280;56608;43.530;-5.652;2023-05-07T04:14:19;101763.91;;;17.66
69415;BMP280;56608;43.530;-5.652;2023-05-07T04:15:19;101766.19;;;17.68
69415;BMP280;56608;43.530;-5.652;2023-05-07T04:16:19;101766.47;;;17.70
69415;BMP280;56608;43.530;-5.652;2023-05-07T04:17:20;101760.75;;;17.68
69415;BMP280;56608;43.530;-5.652;2023-05-07T04:18:20;101763.75;;;17.70
69415;BMP280;56608;43.530;-5.652;2023-05-07T04:19:21;101764.94;;;17.69
69415;BMP280;56608;43.530;-5.652;2023-05-07T04:20:21;101764.66;;;17.67
69415;BMP280;56608;43.530;-5.652;2023-05-07T04:21:22;101762.22;;;17.69
69415;BMP280;56608;43.530;-5.652;2023-05-07T04:22:22;101763.75;;;17.70
69415;BMP280;56608;43.530;-5.652;2023-05-07T04:23:22;101756.94;;;17.74
69415;BMP280;56608;43.530;-5.652;2023-05-07T04:24:23;101763.13;;;17.75
69415;BMP280;56608;43.530;-5.652;2023-05-07T04:25:23;101764.03;;;17.72
69415;BMP280;56608;43.530;-5.652;2023-05-07T04:26:26;101764.66;;;17.67
69415;BMP280;56608;43.530;-5.652;2023-05-07T04:27:26;101756.03;;;17.68
69415;BMP280;56608;43.530;-5.652;2023-05-07T04:28:28;101764.66;;;17.67
69415;BMP280;56608;43.530;-5.652;2023-05-07T04:29:28;101754.56;;;17.67
69415;BMP280;56608;43.530;-5.652;2023-05-07T04:30:28;101751.94;;;17.63
69415;BMP280;56608;43.530;-5.652;2023-05-07T04:31:29;101754.66;;;17.63
69415;BMP280;56608;43.530;-5.652;2023-05-07T04:32:30;101750.62;;;17.59
69415;BMP280;56608;43.530;-5.652;2023-05-07T04:33:31;101747.44;;;17.60
69415;BMP280;56608;43.530;-5.652;2023-05-07T04:34:32;101750.16;;;17.60
69415;BMP280;56608;43.530;-5.652;2023-05-07T04:35:32;101748.37;;;17.57
69415;BMP280;56608;43.530;-5.652;2023-05-07T04:36:33;101755.03;;;17.56
69415;BMP280;56608;43.530;-5.652;2023-05-07T04:37:33;101756.69;;;17.54
69415;BMP280;56608;43.530;-5.652;2023-05-07T04:38:35;101748.37;;;17.57
69415;BMP280;56608;43.530;-5.652;2023-05-07T04:39:36;101751.09;;;17.57
69415;BMP280;56608;43.530;-5.652;2023-05-07T04:40:36;101756.81;;;17.59
69415;BMP280;56608;43.530;-5.652;2023-05-07T04:41:37;101758.31;;;17.60
69415;BMP280;56608;43.530;-5.652;2023-05-07T04:42:37;101761.78;;;17.61
69415;BMP280;56608;43.530;-5.652;2023-05-07T04:43:37;101757.12;;;17.61
69415;BMP280;56608;43.530;-5.652;2023-05-07T04:44:38;101750.16;;;17.60
69415;BMP280;56608;43.530;-5.652;2023-05-07T04:45:38;101753.47;;;17.64
69415;BMP280;56608;43.530;-5.652;2023-05-07T04:46:41;101755.44;;;17.64
69415;BMP280;56608;43.530;-5.652;2023-05-07T04:47:41;101750.75;;;17.64
69415;BMP280;56608;43.530;-5.652;2023-05-07T04:48:41;101749.88;;;17.68
69415;BMP280;56608;43.530;-5.652;2023-05-07T04:49:42;101747.75;;;17.72
69415;BMP280;56608;43.530;-5.652;2023-05-07T04:50:42;101745.28;;;17.74
69415;BMP280;56608;43.530;-5.652;2023-05-07T04:51:42;101747.25;;;17.73
69415;BMP280;56608;43.530;-5.652;2023-05-07T04:52:43;101746.81;;;17.75
69415;BMP280;56608;43.530;-5.652;2023-05-07T04:53:43;101752.06;;;17.78
69415;BMP280;56608;43.530;-5.652;2023-05-07T04:54:43;101754.03;;;17.78
69415;BMP280;56608;43.530;-5.652;2023-05-07T04:55:44;101754.78;;;17.78
69415;BMP280;56608;43.530;-5.652;2023-05-07T04:56:45;101752.56;;;17.77
69415;BMP280;56608;43.530;-5.652;2023-05-07T04:57:45;101753.31;;;17.77
69415;BMP280;56608;43.530;-5.652;2023-05-07T04:58:46;101755.53;;;17.79
69415;BMP280;56608;43.530;-5.652;2023-05-07T04:59:46;101746.94;;;17.80
69415;BMP280;56608;43.530;-5.652;2023-05-07T05:00:46;101755.53;;;17.79
69415;BMP280;56608;43.530;-5.652;2023-05-07T05:01:47;101751.91;;;17.82
69415;BMP280;56608;43.530;-5.652;2023-05-07T05:02:47;101751.91;;;17.82
69415;BMP280;56608;43.530;-5.652;2023-05-07T05:03:47;101749.19;;;17.82
69415;BMP280;56608;43.530;-5.652;2023-05-07T05:04:48;101749.19;;;17.82
69415;BMP280;56608;43.530;-5.652;2023-05-07T05:05:51;101758.84;;;17.83
69415;BMP280;56608;43.530;-5.652;2023-05-07T05:06:52;101750.88;;;17.79
69415;BMP280;56608;43.530;-5.652;2023-05-07T05:07:53;101760.22;;;17.78
69415;BMP280;56608;43.530;-5.652;2023-05-07T05:08:53;101757.81;;;17.80
69415;BMP280;56608;43.530;-5.652;2023-05-07T05:09:53;101757.50;;;17.78
69415;BMP280;56608;43.530;-5.652;2023-05-07T05:10:54;101760.06;;;17.82
69415;BMP280;56608;43.530;-5.652;2023-05-07T05:11:54;101756.59;;;17.81
69415;BMP280;56608;43.530;-5.652;2023-05-07T05:12:55;101756.13;;;17.83
69415;BMP280;56608;43.530;-5.652;2023-05-07T05:13:55;101755.09;;;17.80
69415;BMP280;56608;43.530;-5.652;2023-05-07T05:14:55;101749.66;;;17.80
69415;BMP280;56608;43.530;-5.652;2023-05-07T05:15:56;101753.13;;;17.81
69415;BMP280;56608;43.530;-5.652;2023-05-07T05:16:56;101752.81;;;17.79
69415;BMP280;56608;43.530;-5.652;2023-05-07T05:17:56;101746.63;;;17.78
69415;BMP280;56608;43.530;-5.652;2023-05-07T05:18:57;101765.66;;;17.78
69415;BMP280;56608;43.530;-5.652;2023-05-07T05:19:57;101756.75;;;17.78
69415;BMP280;56608;43.530;-5.652;2023-05-07T05:20:57;101759.78;;;17.80
69415;BMP280;56608;43.530;-5.652;2023-05-07T05:21:58;101770.81;;;17.76
69415;BMP280;56608;43.530;-5.652;2023-05-07T05:22:58;101769.75;;;17.74
69415;BMP280;56608;43.530;-5.652;2023-05-07T05:23:58;101771.44;;;17.71
69415;BMP280;56608;43.530;-5.652;2023-05-07T05:24:59;101776.72;;;17.75
69415;BMP280;56608;43.530;-5.652;2023-05-07T05:25:59;101769.31;;;17.75
69415;BMP280;56608;43.530;-5.652;2023-05-07T05:26:59;101776.25;;;17.76
69415;BMP280;56608;43.530;-5.652;2023-05-07T05:28:01;101775.94;;;17.74
69415;BMP280;56608;43.530;-5.652;2023-05-07T05:29:01;101774.91;;;17.72
69415;BMP280;56608;43.530;-5.652;2023-05-07T05:30:02;101779.59;;;17.71
69415;BMP280;56608;43.530;-5.652;2023-05-07T05:31:03;101780.03;;;17.70
69415;BMP280;56608;43.530;-5.652;2023-05-07T05:32:03;101785.50;;;17.70
69415;BMP280;56608;43.530;-5.652;2023-05-07T05:33:03;101795.44;;;17.73
69415;BMP280;56608;43.530;-5.652;2023-05-07T05:34:04;101796.09;;;17.68
69415;BMP280;56608;43.530;-5.652;2023-05-07T05:35:04;101791.09;;;17.57
69415;BMP280;56608;43.530;-5.652;2023-05-07T05:36:05;101793.22;;;17.44
69415;BMP280;56608;43.530;-5.652;2023-05-07T05:37:06;101800.63;;;17.34
69415;BMP280;56608;43.530;-5.652;2023-05-07T05:38:06;101790.56;;;17.16
69415;BMP280;56608;43.530;-5.652;2023-05-07T05:39:06;101799.59;;;17.22